createdAt,value
2022-10-20T00:01:12.412Z,78.52
2022-10-20T00:03:13.838Z,77.84
2022-10-20T00:05:15.405Z,77.85
2022-10-20T00:07:16.863Z,77.48
2022-10-20T00:09:18.393Z,77.70
2022-10-20T00:11:22.148Z,77.75
2022-10-20T00:13:24.579Z,77.77
2022-10-20T00:15:26.104Z,77.74
2022-10-20T00:17:27.560Z,77.80
2022-10-20T00:19:28.999Z,77.34
2022-10-20T00:21:31.847Z,77.42
2022-10-20T00:23:33.553Z,77.61
2022-10-20T00:25:35.067Z,77.48
2022-10-20T00:27:36.596Z,77.67
2022-10-20T00:29:38.100Z,77.61
2022-10-20T00:31:39.510Z,77.96
2022-10-20T00:33:41.321Z,77.57
2022-10-20T00:35:42.749Z,76.97
2022-10-20T00:37:44.147Z,77.68
2022-10-20T00:39:45.580Z,77.00
2022-10-20T00:41:47.055Z,76.69
2022-10-20T00:43:55.409Z,77.02
2022-10-20T00:45:57.652Z,77.48
2022-10-20T00:48:04.815Z,77.69
2022-10-20T00:50:13.917Z,77.30
2022-10-20T00:52:20.297Z,76.99
2022-10-20T00:54:27.215Z,77.21
2022-10-20T00:56:29.357Z,77.54
2022-10-20T00:58:30.895Z,78.09
2022-10-20T01:00:32.435Z,77.63
2022-10-20T01:02:33.963Z,78.26
2022-10-20T01:04:37.274Z,78.00
2022-10-20T01:06:39.281Z,77.31
2022-10-20T01:08:41.283Z,77.25
2022-10-20T01:11:05.103Z,77.92
2022-10-20T01:13:44.725Z,77.32
2022-10-20T01:15:55.056Z,77.50
2022-10-20T01:18:04.497Z,77.52
2022-10-20T01:20:21.205Z,77.63
2022-10-20T01:22:43.658Z,77.21
2022-10-20T01:24:51.438Z,77.67
2022-10-20T01:27:02.318Z,77.53
2022-10-20T01:29:31.404Z,77.62
2022-10-20T01:32:03.834Z,77.66
2022-10-20T01:34:53.059Z,78.11
2022-10-20T01:37:04.802Z,78.01
2022-10-20T01:39:17.527Z,78.07
2022-10-20T01:41:18.912Z,78.18
2022-10-20T01:43:23.779Z,79.03
2022-10-20T01:45:30.139Z,79.22
2022-10-20T01:47:34.092Z,79.17
2022-10-20T01:49:36.560Z,78.58
2022-10-20T01:51:38.078Z,78.26
2022-10-20T01:53:39.592Z,78.28
2022-10-20T01:55:41.494Z,78.01
2022-10-20T01:57:56.768Z,77.89
2022-10-20T02:00:11.320Z,77.84
2022-10-20T02:02:25.632Z,77.44
2022-10-20T02:04:55.597Z,77.79
2022-10-20T02:07:03.806Z,78.04
2022-10-20T02:09:08.826Z,77.99
2022-10-20T02:11:28.602Z,77.84
2022-10-20T02:13:31.119Z,78.09
2022-10-20T02:15:36.941Z,78.13
2022-10-20T02:17:40.926Z,77.73
2022-10-20T02:19:44.549Z,77.50
2022-10-20T02:21:47.212Z,77.80
2022-10-20T02:23:51.493Z,77.15
2022-10-20T02:25:55.561Z,77.48
2022-10-20T02:30:10.544Z,77.51
2022-10-20T02:32:14.013Z,77.46
2022-10-20T02:34:15.674Z,77.30
2022-10-20T02:36:20.133Z,77.17
2022-10-20T02:38:21.980Z,77.43
2022-10-20T02:40:23.459Z,77.84
2022-10-20T02:42:24.916Z,77.80
2022-10-20T02:44:26.399Z,77.22
2022-10-20T02:46:27.882Z,77.65
2022-10-20T02:48:29.300Z,77.59
2022-10-20T02:50:30.716Z,76.96
2022-10-20T02:52:32.252Z,77.25
2022-10-20T02:54:33.923Z,77.42
2022-10-20T02:56:35.406Z,77.18
2022-10-20T02:58:36.832Z,77.10
2022-10-20T03:00:38.277Z,77.03
2022-10-20T03:02:39.918Z,77.43
2022-10-20T03:04:41.428Z,77.18
2022-10-20T03:06:42.902Z,77.51
2022-10-20T03:08:44.380Z,77.35
2022-10-20T03:10:45.938Z,76.98
2022-10-20T03:12:47.363Z,77.32
2022-10-20T03:14:48.798Z,77.34
2022-10-20T03:16:50.242Z,77.00
2022-10-20T03:18:51.746Z,76.76
2022-10-20T03:20:54.188Z,77.57
2022-10-20T03:22:55.611Z,77.14
2022-10-20T03:24:57.037Z,78.42
2022-10-20T03:26:58.814Z,78.15
2022-10-20T03:29:00.309Z,78.51
2022-10-20T03:31:01.933Z,78.73
2022-10-20T03:33:03.447Z,78.34
2022-10-20T03:35:05.186Z,78.29
2022-10-20T03:37:06.823Z,78.95
2022-10-20T03:39:08.305Z,78.08
2022-10-20T03:41:10.097Z,78.20
2022-10-20T03:43:11.643Z,78.30
2022-10-20T03:45:15.042Z,78.33
2022-10-20T03:47:19.340Z,78.48
2022-10-20T03:49:20.761Z,78.29
2022-10-20T03:51:22.334Z,78.25
2022-10-20T03:53:23.768Z,77.79
2022-10-20T03:55:25.241Z,77.63
2022-10-20T03:57:26.657Z,77.47
2022-10-20T03:59:30.397Z,77.38
2022-10-20T04:01:33.570Z,77.29
2022-10-20T04:03:35.048Z,77.42
2022-10-20T04:05:36.557Z,78.02
2022-10-20T04:07:37.976Z,77.67
2022-10-20T04:09:39.385Z,76.97
2022-10-20T04:11:40.825Z,77.37
2022-10-20T04:13:42.287Z,77.37
2022-10-20T04:15:43.704Z,78.41
2022-10-20T04:17:45.285Z,78.48
2022-10-20T04:19:47.195Z,79.09
2022-10-20T04:21:48.630Z,78.24
2022-10-20T04:23:50.097Z,77.86
2022-10-20T04:25:51.741Z,77.63
2022-10-20T04:27:53.172Z,77.77
2022-10-20T04:29:54.591Z,78.16
2022-10-20T04:31:56.058Z,77.83
2022-10-20T04:33:57.492Z,77.79
2022-10-20T04:36:08.392Z,76.61
2022-10-20T04:38:09.822Z,76.53
2022-10-20T04:40:11.562Z,76.92
2022-10-20T04:42:13.019Z,76.89
2022-10-20T04:44:15.077Z,77.15
2022-10-20T04:46:16.517Z,76.87
2022-10-20T04:48:17.979Z,76.64
2022-10-20T04:50:19.455Z,76.77
2022-10-20T04:52:20.866Z,76.96
2022-10-20T04:54:22.302Z,77.05
2022-10-20T04:56:23.835Z,77.25
2022-10-20T04:58:26.255Z,77.81
2022-10-20T05:00:27.778Z,77.96
2022-10-20T05:02:29.909Z,76.91
2022-10-20T05:04:31.351Z,77.00
2022-10-20T05:06:33.408Z,77.60
2022-10-20T05:08:34.896Z,77.18
2022-10-20T05:10:36.808Z,76.86
2022-10-20T05:12:38.711Z,77.43
2022-10-20T05:14:40.357Z,77.63
2022-10-20T05:16:41.802Z,76.96
2022-10-20T05:18:44.882Z,76.98
2022-10-20T05:21:07.241Z,77.20
2022-10-20T05:23:07.827Z,76.74
2022-10-20T05:25:31.417Z,76.48
2022-10-20T05:27:30.716Z,76.29
2022-10-20T05:29:32.138Z,76.36
2022-10-20T05:31:38.580Z,76.85
2022-10-20T05:33:45.026Z,77.94
2022-10-20T05:35:46.446Z,77.50
2022-10-20T05:37:47.909Z,77.21
2022-10-20T05:39:49.393Z,77.41
2022-10-20T05:41:50.847Z,76.91
2022-10-20T05:43:57.501Z,77.05
2022-10-20T05:45:59.045Z,77.45
2022-10-20T05:48:00.465Z,77.11
2022-10-20T05:50:02.221Z,77.50
2022-10-20T05:52:03.639Z,77.92
2022-10-20T05:54:05.053Z,78.32
2022-10-20T05:56:08.866Z,78.46
2022-10-20T05:58:10.277Z,79.38
2022-10-20T06:00:12.309Z,79.84
2022-10-20T06:02:14.374Z,80.02
2022-10-20T06:04:18.430Z,80.59
2022-10-20T06:06:23.570Z,80.12
2022-10-20T06:08:25.018Z,80.29
2022-10-20T06:10:26.532Z,81.06
2022-10-20T06:12:27.950Z,81.52
2022-10-20T06:14:29.613Z,80.60
2022-10-20T06:16:32.738Z,80.16
2022-10-20T06:18:35.296Z,80.44
2022-10-20T06:20:36.722Z,78.54
2022-10-20T06:22:38.649Z,78.23
2022-10-20T06:24:40.313Z,77.52
2022-10-20T06:26:43.326Z,77.59
2022-10-20T06:28:46.144Z,76.92
2022-10-20T06:30:47.755Z,77.18
2022-10-20T06:32:53.948Z,78.51
2022-10-20T06:34:55.368Z,77.72
2022-10-20T06:36:56.838Z,76.64
2022-10-20T06:38:59.111Z,77.19
2022-10-20T06:41:09.790Z,77.41
2022-10-20T06:43:11.227Z,79.09
2022-10-20T06:45:15.571Z,79.95
2022-10-20T06:47:18.614Z,78.18
2022-10-20T06:49:20.912Z,77.24
2022-10-20T06:51:22.785Z,79.50
2022-10-20T06:53:25.395Z,80.15
2022-10-20T06:55:26.844Z,79.41
2022-10-20T06:57:31.398Z,78.56
2022-10-20T06:59:32.969Z,77.77
2022-10-20T07:01:36.433Z,77.29
2022-10-20T07:03:38.440Z,78.03
2022-10-20T07:05:39.870Z,77.48
2022-10-20T07:07:41.587Z,75.74
2022-10-20T07:09:43.030Z,76.26
2022-10-20T07:11:45.727Z,75.82
2022-10-20T07:13:49.102Z,77.79
2022-10-20T07:15:53.618Z,76.43
2022-10-20T07:17:55.075Z,76.59
2022-10-20T07:19:56.499Z,77.67
2022-10-20T07:21:57.917Z,77.62
2022-10-20T07:24:01.215Z,75.82
2022-10-20T07:26:04.760Z,75.01
2022-10-20T07:28:06.204Z,74.73
2022-10-20T07:30:08.015Z,74.52
2022-10-20T07:32:09.438Z,76.05
2022-10-20T07:34:24.445Z,76.90
2022-10-20T07:36:34.845Z,75.17
2022-10-20T07:38:37.156Z,75.43
2022-10-20T07:40:38.635Z,74.26
2022-10-20T07:42:40.055Z,74.18
2022-10-20T07:44:41.464Z,77.45
2022-10-20T07:46:43.166Z,76.95
2022-10-20T07:48:45.611Z,76.28
2022-10-20T07:50:47.054Z,74.43
2022-10-20T07:52:54.150Z,75.89
2022-10-20T07:55:06.380Z,76.20
2022-10-20T07:57:17.131Z,75.77
2022-10-20T07:59:18.911Z,74.59
2022-10-20T08:01:20.460Z,74.02
2022-10-20T08:03:21.981Z,76.10
2022-10-20T08:05:23.480Z,74.00
2022-10-20T08:07:24.901Z,74.47
2022-10-20T08:09:26.366Z,76.86
2022-10-20T08:11:27.827Z,76.31
2022-10-20T08:13:29.831Z,73.39
2022-10-20T08:15:31.271Z,72.98
2022-10-20T08:17:32.861Z,72.48
2022-10-20T08:20:15.193Z,74.09
2022-10-20T08:22:04.798Z,75.06
2022-10-20T08:24:06.312Z,72.95
2022-10-20T08:26:10.730Z,75.89
2022-10-20T08:28:13.045Z,76.25
2022-10-20T08:30:29.426Z,75.23
2022-10-20T08:32:30.894Z,74.70
2022-10-20T08:34:32.452Z,73.52
2022-10-20T08:36:34.065Z,73.69
2022-10-20T08:38:36.473Z,74.01
2022-10-20T08:40:41.920Z,75.41
2022-10-20T08:42:45.224Z,76.59
2022-10-20T08:44:47.890Z,77.22
2022-10-20T08:46:49.617Z,75.54
2022-10-20T08:48:51.586Z,76.22
2022-10-20T08:50:54.276Z,75.99
2022-10-20T08:52:59.270Z,76.69
2022-10-20T08:55:03.402Z,75.14
2022-10-20T08:57:24.834Z,73.65
2022-10-20T08:59:26.418Z,71.39
2022-10-20T09:01:33.288Z,72.65
2022-10-20T09:03:35.176Z,71.61
2022-10-20T09:05:38.279Z,72.08
2022-10-20T09:07:40.334Z,73.51
2022-10-20T09:09:42.029Z,70.86
2022-10-20T09:11:44.532Z,71.24
2022-10-20T09:13:46.461Z,70.96
2022-10-20T09:15:49.540Z,72.78
2022-10-20T09:17:55.443Z,72.31
2022-10-20T09:20:00.404Z,72.05
2022-10-20T09:22:06.200Z,71.54
2022-10-20T09:24:09.716Z,71.57
2022-10-20T09:26:30.721Z,73.29
2022-10-20T09:29:01.956Z,72.79
2022-10-20T09:31:02.441Z,72.62
2022-10-20T09:33:25.749Z,73.28
2022-10-20T09:35:35.639Z,72.50
2022-10-20T09:37:37.194Z,74.41
2022-10-20T09:39:58.203Z,74.46
2022-10-20T09:44:23.610Z,71.73
2022-10-20T09:46:31.042Z,73.18
2022-10-20T09:48:36.176Z,73.65
2022-10-20T09:50:40.462Z,72.67
2022-10-20T09:52:47.689Z,71.93
2022-10-20T09:54:59.418Z,72.15
2022-10-20T09:57:05.935Z,72.39
2022-10-20T09:59:19.585Z,71.82
2022-10-20T10:01:21.656Z,71.43
2022-10-20T10:03:24.064Z,72.88
2022-10-20T10:05:32.973Z,73.06
2022-10-20T10:07:34.463Z,72.53
2022-10-20T10:09:37.944Z,73.33
2022-10-20T10:11:39.678Z,71.11
2022-10-20T10:13:45.772Z,71.34
2022-10-20T10:15:47.255Z,70.84
2022-10-20T10:17:50.759Z,70.48
2022-10-20T10:19:55.439Z,70.73
2022-10-20T10:22:01.775Z,70.24
2022-10-20T10:24:04.819Z,69.27
2022-10-20T10:26:39.552Z,69.66
2022-10-20T10:28:41.919Z,69.60
2022-10-20T10:30:46.873Z,67.70
2022-10-20T10:32:50.988Z,67.51
2022-10-20T10:35:08.243Z,67.54
2022-10-20T10:37:15.529Z,67.94
2022-10-20T10:39:17.036Z,69.29
2022-10-20T10:41:21.437Z,67.96
2022-10-20T10:43:41.190Z,67.13
2022-10-20T10:45:58.283Z,67.25
2022-10-20T10:48:12.427Z,66.99
2022-10-20T10:50:32.551Z,66.86
2022-10-20T10:52:40.093Z,65.87
2022-10-20T10:55:02.964Z,65.30
2022-10-20T10:57:22.864Z,64.77
2022-10-20T10:59:36.135Z,63.50
2022-10-20T11:01:56.376Z,62.96
2022-10-20T11:04:25.706Z,62.78
2022-10-20T11:06:30.095Z,63.48
2022-10-20T11:08:34.474Z,62.96
2022-10-20T11:11:17.105Z,62.37
2022-10-20T11:13:32.584Z,62.55
2022-10-20T11:15:58.212Z,63.12
2022-10-20T11:18:21.036Z,63.64
2022-10-20T11:20:53.013Z,62.71
2022-10-20T11:23:27.443Z,62.54
2022-10-20T11:25:34.144Z,61.69
2022-10-20T11:27:37.624Z,61.71
2022-10-20T11:29:51.044Z,63.24
2022-10-20T11:31:56.493Z,62.53
2022-10-20T11:34:05.706Z,61.81
2022-10-20T11:36:15.239Z,61.49
2022-10-20T11:38:38.025Z,60.96
2022-10-20T11:40:43.378Z,58.08
2022-10-20T11:43:13.216Z,59.88
2022-10-20T11:45:29.692Z,59.49
2022-10-20T11:47:36.923Z,60.33
2022-10-20T11:49:40.363Z,59.55
2022-10-20T11:52:00.617Z,61.04
2022-10-20T11:54:35.409Z,60.57
2022-10-20T11:56:49.176Z,61.96
2022-10-20T11:58:56.487Z,63.58
2022-10-20T12:01:13.255Z,61.87
2022-10-20T12:03:30.595Z,63.97
2022-10-20T12:06:10.170Z,63.40
2022-10-20T12:08:43.518Z,63.98
2022-10-20T12:10:56.914Z,65.12
2022-10-20T12:13:38.079Z,65.07
2022-10-20T12:15:51.397Z,65.39
2022-10-20T12:17:54.831Z,65.35
2022-10-20T12:20:20.949Z,64.08
2022-10-20T12:22:38.988Z,64.52
2022-10-20T12:24:52.603Z,65.57
2022-10-20T12:27:24.031Z,64.30
2022-10-20T12:29:47.068Z,65.61
2022-10-20T12:32:26.863Z,65.31
2022-10-20T12:34:39.526Z,63.90
2022-10-20T12:36:41.061Z,64.26
2022-10-20T12:38:46.098Z,65.12
2022-10-20T12:40:57.735Z,65.41
2022-10-20T12:43:00.299Z,65.65
2022-10-20T12:45:06.483Z,66.68
2022-10-20T12:47:09.347Z,65.85
2022-10-20T12:49:25.007Z,65.81
2022-10-20T12:51:29.725Z,66.00
2022-10-20T12:53:31.488Z,65.91
2022-10-20T12:55:40.960Z,65.90
2022-10-20T12:57:45.296Z,65.96
2022-10-20T12:59:46.856Z,65.46
2022-10-20T13:02:09.786Z,66.18
2022-10-20T13:04:49.596Z,66.10
2022-10-20T13:06:51.044Z,66.04
2022-10-20T13:09:04.697Z,66.00
2022-10-20T13:11:37.706Z,65.81
2022-10-20T13:13:58.828Z,66.79
2022-10-20T13:16:03.677Z,66.41
2022-10-20T13:18:17.351Z,65.66
2022-10-20T13:20:29.597Z,66.58
2022-10-20T13:22:30.989Z,66.39
2022-10-20T13:24:34.433Z,66.19
2022-10-20T13:26:43.308Z,66.49
2022-10-20T13:28:47.965Z,66.89
2022-10-20T13:31:12.449Z,65.80
2022-10-20T13:33:51.116Z,66.89
2022-10-20T13:36:07.849Z,66.86
2022-10-20T13:38:37.255Z,67.00
2022-10-20T13:40:58.583Z,66.38
2022-10-20T13:43:23.898Z,66.00
2022-10-20T13:45:38.853Z,66.69
2022-10-20T13:47:46.139Z,66.23
2022-10-20T13:50:07.472Z,66.66
2022-10-20T13:52:15.077Z,66.36
2022-10-20T13:54:29.273Z,67.19
2022-10-20T13:56:40.933Z,66.77
2022-10-20T13:59:06.928Z,67.27
2022-10-20T14:01:24.408Z,67.21
2022-10-20T14:03:25.962Z,67.83
2022-10-20T14:05:29.911Z,67.95
2022-10-20T14:07:42.606Z,67.59
2022-10-20T14:09:47.458Z,68.55
2022-10-20T14:11:55.772Z,68.44
2022-10-20T14:13:59.666Z,68.04
2022-10-20T14:16:04.307Z,67.83
2022-10-20T14:18:21.768Z,68.41
2022-10-20T14:20:24.204Z,68.56
2022-10-20T14:22:25.660Z,68.63
2022-10-20T14:24:32.031Z,68.64
2022-10-20T14:26:33.670Z,68.55
2022-10-20T14:28:36.428Z,68.86
2022-10-20T14:30:41.187Z,68.39
2022-10-20T14:32:44.264Z,68.99
2022-10-20T14:35:18.896Z,68.87
2022-10-20T14:37:31.477Z,69.45
2022-10-20T14:39:36.962Z,69.39
2022-10-20T14:41:38.528Z,69.69
2022-10-20T14:43:48.514Z,69.53
2022-10-20T14:45:59.499Z,69.38
2022-10-20T14:48:02.114Z,69.71
2022-10-20T14:50:04.458Z,69.49
2022-10-20T14:52:22.055Z,69.86
2022-10-20T14:54:32.415Z,69.82
2022-10-20T14:56:33.896Z,70.47
2022-10-20T14:58:59.836Z,70.62
2022-10-20T15:01:22.725Z,71.95
2022-10-20T15:03:24.210Z,72.37
2022-10-20T15:05:37.566Z,73.60
2022-10-20T15:07:39.701Z,74.32
2022-10-20T15:09:42.888Z,75.40
2022-10-20T15:11:44.470Z,76.41
2022-10-20T15:13:51.846Z,76.08
2022-10-20T15:15:53.340Z,76.55
2022-10-20T15:18:03.827Z,77.59
2022-10-20T15:20:30.270Z,78.41
2022-10-20T15:22:31.674Z,78.60
2022-10-20T15:24:33.118Z,78.34
2022-10-20T15:26:34.537Z,79.00
2022-10-20T15:28:46.049Z,79.75
2022-10-20T15:30:47.755Z,79.86
2022-10-20T15:32:49.846Z,80.55
2022-10-20T15:34:51.278Z,80.69
2022-10-20T15:36:53.598Z,80.81
2022-10-20T15:38:56.304Z,80.70
2022-10-20T15:43:03.297Z,80.01
2022-10-20T15:45:21.254Z,78.96
2022-10-20T15:47:22.698Z,78.74
2022-10-20T15:49:24.161Z,80.26
2022-10-20T15:51:28.368Z,79.69
2022-10-20T15:53:29.802Z,79.53
2022-10-20T15:55:37.955Z,79.00
2022-10-20T15:57:39.655Z,78.43
2022-10-20T15:59:41.221Z,78.86
2022-10-20T16:01:42.686Z,80.13
2022-10-20T16:03:44.750Z,79.82
2022-10-20T16:05:46.984Z,79.54
2022-10-20T16:07:49.071Z,79.38
2022-10-20T16:09:50.660Z,78.88
2022-10-20T16:11:52.083Z,79.85
2022-10-20T16:13:53.509Z,79.34
2022-10-20T16:15:54.959Z,80.14
2022-10-20T16:17:56.738Z,80.41
2022-10-20T16:19:58.303Z,80.11
2022-10-20T16:21:59.758Z,79.69
2022-10-20T16:24:01.250Z,79.84
2022-10-20T16:26:07.824Z,80.08
2022-10-20T16:28:09.620Z,80.34
2022-10-20T16:30:11.493Z,81.01
2022-10-20T16:32:12.950Z,82.80
2022-10-20T16:34:14.406Z,84.44
2022-10-20T16:36:17.734Z,86.05
2022-10-20T16:38:19.147Z,86.24
2022-10-20T16:40:20.605Z,85.44
2022-10-20T16:42:22.029Z,85.14
2022-10-20T16:44:23.641Z,83.76
2022-10-20T16:46:25.329Z,83.11
2022-10-20T16:48:26.735Z,82.31
2022-10-20T16:50:28.154Z,80.42
2022-10-20T16:52:29.601Z,80.02
2022-10-20T16:54:31.103Z,82.82
2022-10-20T16:56:32.559Z,81.25
2022-10-20T16:58:34.125Z,80.95
2022-10-20T17:00:35.629Z,80.79
2022-10-20T17:02:37.742Z,81.82
2022-10-20T17:04:39.481Z,82.02
2022-10-20T17:06:40.912Z,81.76
2022-10-20T17:08:42.726Z,81.84
2022-10-20T17:10:44.207Z,80.66
2022-10-20T17:12:47.468Z,84.24
2022-10-20T17:14:48.981Z,86.23
2022-10-20T17:16:50.453Z,86.74
2022-10-20T17:18:55.858Z,87.77
2022-10-20T17:20:57.288Z,88.59
2022-10-20T17:25:07.409Z,88.30
2022-10-20T17:27:09.022Z,88.42
2022-10-20T17:29:10.622Z,88.91
2022-10-20T17:31:14.451Z,88.39
2022-10-20T17:33:16.014Z,86.24
2022-10-20T17:35:17.492Z,87.17
2022-10-20T17:37:18.984Z,87.17
2022-10-20T17:39:22.071Z,87.19
2022-10-20T17:41:24.280Z,87.46
2022-10-20T17:43:25.731Z,87.44
2022-10-20T17:45:27.263Z,85.54
2022-10-20T17:47:28.696Z,84.50
2022-10-20T17:49:30.116Z,85.39
2022-10-20T17:51:34.486Z,86.54
2022-10-20T17:53:39.376Z,85.57
2022-10-20T17:55:40.811Z,86.82
2022-10-20T17:57:42.246Z,86.84
2022-10-20T17:59:52.819Z,85.81
2022-10-20T18:01:56.026Z,85.25
2022-10-20T18:04:02.974Z,87.03
2022-10-20T18:06:16.723Z,89.33
2022-10-20T18:08:18.139Z,90.29
2022-10-20T18:10:19.576Z,90.14
2022-10-20T18:12:21.025Z,90.41
2022-10-20T18:14:22.555Z,91.02
2022-10-20T18:16:24.055Z,91.08
2022-10-20T18:18:25.468Z,91.59
2022-10-20T18:20:30.861Z,92.02
2022-10-20T18:22:33.741Z,91.51
2022-10-20T18:24:36.555Z,89.69
2022-10-20T18:26:38.569Z,88.09
2022-10-20T18:28:42.097Z,88.39
2022-10-20T18:30:46.128Z,89.55
2022-10-20T18:32:47.594Z,90.45
2022-10-20T18:34:49.031Z,91.78
2022-10-20T18:36:53.705Z,92.85
2022-10-20T18:38:55.766Z,92.99
2022-10-20T18:41:04.507Z,92.84
2022-10-20T18:43:05.956Z,92.86
2022-10-20T18:45:07.596Z,91.75
2022-10-20T18:47:10.818Z,88.64
2022-10-20T18:49:14.520Z,88.50
2022-10-20T18:51:16.408Z,88.15
2022-10-20T18:53:17.844Z,89.60
2022-10-20T18:55:19.286Z,89.08
2022-10-20T18:57:20.688Z,88.64
2022-10-20T18:59:22.903Z,88.43
2022-10-20T19:01:29.999Z,88.17
2022-10-20T19:03:34.331Z,89.63
2022-10-20T19:05:37.788Z,89.94
2022-10-20T19:07:39.484Z,89.90
2022-10-20T19:09:41.049Z,90.53
2022-10-20T19:11:43.908Z,91.15
2022-10-20T19:13:45.678Z,91.11
2022-10-20T19:15:47.296Z,92.32
2022-10-20T19:17:48.831Z,92.79
2022-10-20T19:19:50.335Z,93.11
2022-10-20T19:21:51.759Z,93.90
2022-10-20T19:23:57.560Z,93.80
2022-10-20T19:26:17.853Z,93.63
2022-10-20T19:28:19.271Z,93.11
2022-10-20T19:30:20.836Z,92.91
2022-10-20T19:32:22.369Z,93.56
2022-10-20T19:34:27.134Z,93.66
2022-10-20T19:36:29.928Z,93.77
2022-10-20T19:38:31.382Z,93.95
2022-10-20T19:40:32.828Z,93.92
2022-10-20T19:42:34.438Z,93.42
2022-10-20T19:44:36.153Z,93.30
2022-10-20T19:46:38.484Z,93.59
2022-10-20T19:48:40.295Z,94.38
2022-10-20T19:50:41.762Z,94.93
2022-10-20T19:52:43.232Z,94.78
2022-10-20T19:54:44.671Z,93.97
2022-10-20T19:56:46.544Z,92.74
2022-10-20T19:58:48.605Z,91.99
2022-10-20T20:00:52.428Z,90.99
2022-10-20T20:02:53.894Z,90.83
2022-10-20T20:04:55.300Z,91.14
2022-10-20T20:07:01.698Z,90.83
2022-10-20T20:09:08.275Z,91.83
2022-10-20T20:11:09.931Z,91.29
2022-10-20T20:13:11.367Z,91.44
2022-10-20T20:15:12.895Z,91.82
2022-10-20T20:17:14.337Z,91.96
2022-10-20T20:19:17.078Z,91.37
2022-10-20T20:21:18.811Z,91.07
2022-10-20T20:23:25.907Z,91.58
2022-10-20T20:25:41.499Z,91.10
2022-10-20T20:27:42.934Z,91.48
2022-10-20T20:29:44.369Z,92.11
2022-10-20T20:31:45.961Z,92.61
2022-10-20T20:33:47.596Z,93.20
2022-10-20T20:35:58.755Z,92.35
2022-10-20T20:38:00.396Z,92.94
2022-10-20T20:40:01.860Z,93.11
2022-10-20T20:42:03.334Z,93.45
2022-10-20T20:44:08.341Z,93.55
2022-10-20T20:46:16.867Z,93.23
2022-10-20T20:48:18.309Z,93.27
2022-10-20T20:50:19.750Z,92.76
2022-10-20T20:52:21.203Z,93.53
2022-10-20T20:54:23.012Z,94.20
2022-10-20T20:56:26.813Z,93.84
2022-10-20T20:58:30.251Z,93.53
2022-10-20T21:00:31.755Z,92.98
2022-10-20T21:02:33.177Z,92.83
2022-10-20T21:04:34.708Z,92.41
2022-10-20T21:07:01.108Z,92.09
2022-10-20T21:09:02.504Z,92.46
2022-10-20T21:11:09.634Z,91.56
2022-10-20T21:13:11.156Z,92.97
2022-10-20T21:15:12.602Z,94.27
2022-10-20T21:17:14.043Z,94.31
2022-10-20T21:19:15.768Z,93.28
2022-10-20T21:21:25.762Z,92.48
2022-10-20T21:23:27.186Z,91.97
2022-10-20T21:25:28.649Z,92.17
2022-10-20T21:27:30.207Z,92.14
2022-10-20T21:29:31.719Z,92.29
2022-10-20T21:31:33.522Z,92.82
2022-10-20T21:33:36.311Z,94.49
2022-10-20T21:35:37.758Z,93.88
2022-10-20T21:37:39.187Z,94.07
2022-10-20T21:39:40.631Z,94.41
2022-10-20T21:41:43.837Z,95.08
2022-10-20T21:43:49.047Z,95.62
2022-10-20T21:45:50.514Z,95.99
2022-10-20T21:47:56.274Z,96.30
2022-10-20T21:49:57.699Z,96.85
2022-10-20T21:51:59.701Z,96.21
2022-10-20T21:54:04.959Z,95.50
2022-10-20T21:56:07.116Z,96.14
2022-10-20T21:58:08.579Z,96.35
2022-10-20T22:00:10.473Z,96.63
2022-10-20T22:02:13.822Z,95.32
2022-10-20T22:04:15.972Z,95.42
2022-10-20T22:06:19.317Z,94.62
2022-10-20T22:08:20.761Z,94.63
2022-10-20T22:10:22.213Z,94.40
2022-10-20T22:12:23.672Z,95.24
2022-10-20T22:14:25.141Z,96.02
2022-10-20T22:16:30.080Z,96.91
2022-10-20T22:18:31.561Z,97.81
2022-10-20T22:20:35.985Z,98.68
2022-10-20T22:22:37.749Z,98.86
2022-10-20T22:24:39.365Z,99.27
2022-10-20T22:26:41.644Z,99.31
2022-10-20T22:28:43.099Z,99.20
2022-10-20T22:30:44.534Z,99.22
2022-10-20T22:32:45.959Z,99.22
2022-10-20T22:34:47.385Z,99.85
2022-10-20T22:36:48.931Z,99.57
2022-10-20T22:38:50.654Z,99.50
2022-10-20T22:40:52.120Z,99.78
2022-10-20T22:42:53.559Z,99.03
2022-10-20T22:44:54.985Z,97.83
2022-10-20T22:46:56.422Z,97.20
2022-10-20T22:51:03.180Z,95.74
2022-10-20T22:53:04.617Z,96.14
2022-10-20T22:55:06.768Z,95.75
2022-10-20T22:57:08.199Z,95.95
2022-10-20T22:59:09.631Z,95.33
2022-10-20T23:01:19.755Z,94.51
2022-10-20T23:03:21.243Z,95.58
2022-10-20T23:05:22.806Z,97.08
2022-10-20T23:07:24.886Z,96.59
2022-10-20T23:09:26.606Z,97.24
2022-10-20T23:11:29.372Z,97.24
2022-10-20T23:13:30.810Z,97.21
2022-10-20T23:15:32.264Z,97.82
2022-10-20T23:17:33.710Z,98.17
2022-10-20T23:19:35.202Z,98.29
2022-10-20T23:21:36.647Z,97.57
2022-10-20T23:23:38.284Z,98.06
2022-10-20T23:25:43.368Z,96.73
2022-10-20T23:27:44.787Z,97.64
2022-10-20T23:29:46.192Z,98.50
2022-10-20T23:31:47.625Z,98.88
2022-10-20T23:33:54.041Z,97.91
2022-10-20T23:35:55.464Z,97.34
2022-10-20T23:37:56.955Z,97.02
2022-10-20T23:39:58.388Z,97.68
2022-10-20T23:42:03.435Z,98.07
2022-10-20T23:44:08.708Z,98.07
2022-10-20T23:46:12.006Z,97.27
2022-10-20T23:48:13.716Z,97.28
2022-10-20T23:50:16.614Z,97.35
2022-10-20T23:52:18.040Z,98.13
2022-10-20T23:54:19.573Z,97.89
2022-10-20T23:56:21.685Z,97.55
2022-10-20T23:58:23.347Z,96.93
